Historique des mesures à Cassis (13260), France
Quotidien Résumé Mars 6, 2018 Unités:  Métrique    US   Métrique/US
« Précédent (Jour)
Suivant (Jour) »
Quotidien Hebdomadaire Mensuel Annuel Période au choix
  Maximum: Minimum: Moyenne:
Température: TemperatureC °C 8.6 °C 10.5 °C
Point de rosée: DewpointC °C 4.9 °C 6.6 °C
Humidité: Humidity % 67 % 73 %
Vitesse du vent: 0 km/h 0 km/h 7.2 km/h
Rafales: 0 km/h - -
Vent:- - WSW
Pression: PressurehPa hPa 986.7 hPa -
Précipitations: 4.6 mm    
Historical Graphs
 
 
Mesures pour : Mars 6, 2018
Heure Temperature Point de rosée Pression Vent Vitesse du vent Rafales Humidité Pluie (par heure) Conditions
TemperatureC °C DewpointC °C PressurehPa hPa Calm     Humidity % HourlyPrecipMM mm SoftwareType W/m2
00:12 9.8 °C 7.0 °C 987.4 hPa ENE 5.1 km/h 7.6 km/h 83 % 0.0 mm open2300-1.11 W/m2
01:12 9.8 °C 6.7 °C 987.0 hPa NNE 4.7 km/h 8.9 km/h 81 % 0.0 mm open2300-1.11 W/m2
02:12 9.8 °C 6.8 °C 987.0 hPa Calm   8 km/h 82 % 0.5 mm open2300-1.11 W/m2
03:12 9.4 °C 6.8 °C 986.7 hPa ESE 6.4 km/h 8 km/h 84 % 1.5 mm open2300-1.11 W/m2
04:12 8.9 °C 6.3 °C 987.0 hPa NW 4.2 km/h 8.9 km/h 84 % 1.5 mm open2300-1.11 W/m2
05:12 8.8 °C 6.4 °C 987.4 hPa NNW 8 km/h 8 km/h 85 % 1.0 mm open2300-1.11 W/m2
06:12 8.6 °C 6.2 °C 988.0 hPa NNW 4.7 km/h 8 km/h 85 % 0.0 mm open2300-1.11 W/m2
07:12 8.8 °C 6.2 °C 988.7 hPa Calm   5.6 km/h 84 % 0.0 mm open2300-1.11 W/m2
08:11 9.0 °C 6.2 °C 989.4 hPa Calm   2.9 km/h 83 % 0.0 mm open2300-1.11 W/m2
09:12 10.1 °C 6.9 °C 990.1 hPa Calm   4.2 km/h 81 % 0.0 mm open2300-1.11 W/m2
10:12 10.9 °C 7.1 °C 990.4 hPa WNW 8 km/h 8 km/h 77 % 0.0 mm open2300-1.11 W/m2
11:12 11.5 °C 7.4 °C 990.7 hPa WNW 16.3 km/h 16.3 km/h 76 % 0.0 mm open2300-1.11 W/m2
12:12 12.4 °C 7.7 °C 990.7 hPa WNW 26.2 km/h 26.2 km/h 73 % 0.0 mm open2300-1.11 W/m2
13:11 12.9 °C 8.0 °C 990.4 hPa WNW 18.7 km/h 18.7 km/h 72 % 0.0 mm open2300-1.11 W/m2
14:12 13.6 °C 8.2 °C 990.4 hPa WNW 19.6 km/h 24.3 km/h 70 % 0.0 mm open2300-1.11 W/m2
15:12 13.3 °C 7.9 °C 990.7 hPa NW 23.8 km/h 33.6 km/h 70 % 0.0 mm open2300-1.11 W/m2
16:11 13.4 °C 7.4 °C 990.7 hPa WSW 3.4 km/h 17.4 km/h 67 % 0.0 mm open2300-1.11 W/m2
17:12 13.9 °C 7.8 °C 991.1 hPa WSW 3.4 km/h 4.7 km/h 67 % 0.0 mm open2300-1.11 W/m2
18:12 13.1 °C 7.1 °C 991.8 hPa Calm     67 % 0.0 mm open2300-1.11 W/m2
19:11 11.9 °C 6.8 °C 992.4 hPa WSW 4.2 km/h 7.6 km/h 71 % 0.0 mm open2300-1.11 W/m2
20:12 11.6 °C 6.9 °C 993.5 hPa Calm     73 % 0.0 mm open2300-1.11 W/m2
21:12 11.5 °C 7.4 °C 993.8 hPa Calm   2.9 km/h 76 % 0.0 mm open2300-1.11 W/m2
22:12 9.6 °C 5.0 °C 994.5 hPa NNW 15 km/h 23.8 km/h 73 % 0.0 mm open2300-1.11 W/m2
23:12 10.1 °C 4.9 °C 994.8 hPa WNW 7.6 km/h 7.6 km/h 70 % 0.0 mm open2300-1.11 W/m2
Observations météo à CASSIS
WU-History script by Weather Underground - 1 mb